sensor_id;sensor_type;location;lat;lon;timestamp;pressure;altitude;pressure_sealevel;temperature;humidity
43312;BME280;30041;48.300;16.352;2023-02-01T00:00:11;99819.72;;;20.31;40.98
43312;BME280;30041;48.300;16.352;2023-02-01T00:02:37;99836.47;;;20.33;40.84
43312;BME280;30041;48.300;16.352;2023-02-01T00:05:03;99834.00;;;20.31;41.07
43312;BME280;30041;48.300;16.352;2023-02-01T00:07:28;99846.88;;;20.29;40.95
43312;BME280;30041;48.300;16.352;2023-02-01T00:09:53;99835.28;;;20.29;41.08
43312;BME280;30041;48.300;16.352;2023-02-01T00:12:19;99820.19;;;20.28;41.08
43312;BME280;30041;48.300;16.352;2023-02-01T00:14:46;99807.31;;;20.30;41.08
43312;BME280;30041;48.300;16.352;2023-02-01T00:17:11;99815.84;;;20.27;41.06
43312;BME280;30041;48.300;16.352;2023-02-01T00:19:37;99816.44;;;20.29;41.04
43312;BME280;30041;48.300;16.352;2023-02-01T00:22:02;99816.22;;;20.30;40.85
43312;BME280;30041;48.300;16.352;2023-02-01T00:24:28;99805.06;;;20.27;40.93
43312;BME280;30041;48.300;16.352;2023-02-01T00:26:53;99809.63;;;20.26;41.01
43312;BME280;30041;48.300;16.352;2023-02-01T00:29:20;99808.59;;;20.27;41.07
43312;BME280;30041;48.300;16.352;2023-02-01T00:31:46;99808.00;;;20.25;40.92
43312;BME280;30041;48.300;16.352;2023-02-01T00:34:14;99806.94;;;20.26;41.00
43312;BME280;30041;48.300;16.352;2023-02-01T00:36:41;99835.94;;;20.24;40.75
43312;BME280;30041;48.300;16.352;2023-02-01T00:39:07;99824.97;;;20.26;40.79
43312;BME280;30041;48.300;16.352;2023-02-01T00:41:33;99822.75;;;20.23;41.03
43312;BME280;30041;48.300;16.352;2023-02-01T00:43:59;99819.00;;;20.24;41.05
43312;BME280;30041;48.300;16.352;2023-02-01T00:46:24;99822.50;;;20.24;40.98
43312;BME280;30041;48.300;16.352;2023-02-01T00:48:50;99835.34;;;20.22;40.93
43312;BME280;30041;48.300;16.352;2023-02-01T00:51:18;99849.06;;;20.21;41.04
43312;BME280;30041;48.300;16.352;2023-02-01T00:53:44;99841.56;;;20.23;41.01
43312;BME280;30041;48.300;16.352;2023-02-01T00:56:10;99826.69;;;20.20;41.04
43312;BME280;30041;48.300;16.352;2023-02-01T00:58:36;99837.44;;;20.20;41.01
43312;BME280;30041;48.300;16.352;2023-02-01T01:03:30;99844.47;;;20.21;40.99
43312;BME280;30041;48.300;16.352;2023-02-01T01:05:56;99859.22;;;20.19;40.87
43312;BME280;30041;48.300;16.352;2023-02-01T01:08:24;99857.53;;;20.18;40.85
43312;BME280;30041;48.300;16.352;2023-02-01T01:10:50;99861.91;;;20.19;40.98
43312;BME280;30041;48.300;16.352;2023-02-01T01:13:15;99865.19;;;20.21;40.97
43312;BME280;30041;48.300;16.352;2023-02-01T01:15:41;99851.94;;;20.19;40.91
43312;BME280;30041;48.300;16.352;2023-02-01T01:18:08;99859.81;;;20.21;40.62
43312;BME280;30041;48.300;16.352;2023-02-01T01:20:35;99845.75;;;20.19;40.97
43312;BME280;30041;48.300;16.352;2023-02-01T01:23:02;99864.34;;;20.20;40.82
43312;BME280;30041;48.300;16.352;2023-02-01T01:25:28;99861.31;;;20.17;40.76
43312;BME280;30041;48.300;16.352;2023-02-01T01:27:53;99853.22;;;20.17;40.86
43312;BME280;30041;48.300;16.352;2023-02-01T01:30:19;99849.13;;;20.14;40.98
43312;BME280;30041;48.300;16.352;2023-02-01T01:32:44;99854.84;;;20.18;40.90
43312;BME280;30041;48.300;16.352;2023-02-01T01:35:10;99844.34;;;20.16;40.85
43312;BME280;30041;48.300;16.352;2023-02-01T01:37:37;99841.66;;;20.16;40.74
43312;BME280;30041;48.300;16.352;2023-02-01T01:40:04;99845.75;;;20.19;40.95
43312;BME280;30041;48.300;16.352;2023-02-01T01:42:30;99832.50;;;20.17;40.76
43312;BME280;30041;48.300;16.352;2023-02-01T01:45:03;99835.41;;;20.16;40.91
43312;BME280;30041;48.300;16.352;2023-02-01T01:47:42;99821.97;;;20.16;40.81
43312;BME280;30041;48.300;16.352;2023-02-01T01:50:13;99827.34;;;20.16;40.83
43312;BME280;30041;48.300;16.352;2023-02-01T01:52:41;99832.72;;;20.16;40.83
43312;BME280;30041;48.300;16.352;2023-02-01T01:55:07;99819.53;;;20.14;40.64
43312;BME280;30041;48.300;16.352;2023-02-01T01:57:37;99838.97;;;20.16;40.71
43312;BME280;30041;48.300;16.352;2023-02-01T02:00:14;99844.16;;;20.11;40.71
43312;BME280;30041;48.300;16.352;2023-02-01T02:02:43;99832.72;;;20.16;40.63
43312;BME280;30041;48.300;16.352;2023-02-01T02:05:11;99850.97;;;20.14;40.84
43312;BME280;30041;48.300;16.352;2023-02-01T02:07:41;99828.63;;;20.13;40.69
43312;BME280;30041;48.300;16.352;2023-02-01T02:10:10;99836.09;;;20.11;40.71
43312;BME280;30041;48.300;16.352;2023-02-01T02:12:42;99836.91;;;20.11;40.98
43312;BME280;30041;48.300;16.352;2023-02-01T02:15:12;99839.16;;;20.15;40.78
43312;BME280;30041;48.300;16.352;2023-02-01T02:17:57;99831.31;;;20.13;40.73
43312;BME280;30041;48.300;16.352;2023-02-01T02:20:57;99835.50;;;20.09;40.63
43312;BME280;30041;48.300;16.352;2023-02-01T02:23:41;99836.91;;;20.11;40.74
43312;BME280;30041;48.300;16.352;2023-02-01T02:29:36;99841.72;;;20.09;40.78
43312;BME280;30041;48.300;16.352;2023-02-01T02:34:57;99872.13;;;20.10;40.77
43312;BME280;30041;48.300;16.352;2023-02-01T02:37:45;99874.22;;;20.08;40.65
43312;BME280;30041;48.300;16.352;2023-02-01T02:45:59;99885.78;;;20.08;40.85
43312;BME280;30041;48.300;16.352;2023-02-01T02:48:36;99883.91;;;20.09;40.74
43312;BME280;30041;48.300;16.352;2023-02-01T02:51:08;99874.56;;;20.11;40.66
43312;BME280;30041;48.300;16.352;2023-02-01T02:53:46;99883.31;;;20.07;40.74
43312;BME280;30041;48.300;16.352;2023-02-01T02:56:15;99867.41;;;20.05;40.53
43312;BME280;30041;48.300;16.352;2023-02-01T02:58:42;99868.22;;;20.06;40.63
43312;BME280;30041;48.300;16.352;2023-02-01T03:01:08;99870.09;;;20.05;40.60
43312;BME280;30041;48.300;16.352;2023-02-01T03:03:40;99867.41;;;20.05;40.67
43312;BME280;30041;48.300;16.352;2023-02-01T03:06:13;99874.88;;;20.03;40.68
43312;BME280;30041;48.300;16.352;2023-02-01T03:08:39;99879.00;;;20.06;40.53
43312;BME280;30041;48.300;16.352;2023-02-01T03:11:06;99871.75;;;20.06;40.56
43312;BME280;30041;48.300;16.352;2023-02-01T03:13:38;99884.38;;;20.06;40.52
43312;BME280;30041;48.300;16.352;2023-02-01T03:16:15;99888.13;;;20.05;40.54
43312;BME280;30041;48.300;16.352;2023-02-01T03:18:46;99877.78;;;20.02;40.65
43312;BME280;30041;48.300;16.352;2023-02-01T03:21:20;99871.13;;;20.04;40.62
43312;BME280;30041;48.300;16.352;2023-02-01T03:23:48;99884.59;;;20.04;40.66
43312;BME280;30041;48.300;16.352;2023-02-01T03:26:17;99886.47;;;20.04;40.72
43312;BME280;30041;48.300;16.352;2023-02-01T03:28:49;99878.59;;;20.02;40.96
43312;BME280;30041;48.300;16.352;2023-02-01T03:31:18;99889.38;;;20.02;40.63
43312;BME280;30041;48.300;16.352;2023-02-01T03:33:43;99884.84;;;20.03;40.64
43312;BME280;30041;48.300;16.352;2023-02-01T03:36:37;99880.69;;;20.00;40.70
43312;BME280;30041;48.300;16.352;2023-02-01T03:39:17;99872.41;;;20.02;40.68
43312;BME280;30041;48.300;16.352;2023-02-01T03:41:54;99872.19;;;20.03;40.69
43312;BME280;30041;48.300;16.352;2023-02-01T03:44:26;99875.09;;;20.02;40.61
43312;BME280;30041;48.300;16.352;2023-02-01T03:47:23;99890.44;;;20.01;40.73
43312;BME280;30041;48.300;16.352;2023-02-01T03:49:54;99886.06;;;20.00;40.78
43312;BME280;30041;48.300;16.352;2023-02-01T03:52:24;99885.50;;;19.98;40.59
43312;BME280;30041;48.300;16.352;2023-02-01T03:54:53;99888.19;;;19.98;40.60
43312;BME280;30041;48.300;16.352;2023-02-01T03:57:23;99896.84;;;20.00;40.75
43312;BME280;30041;48.300;16.352;2023-02-01T03:59:52;99891.91;;;19.97;40.74
43312;BME280;30041;48.300;16.352;2023-02-01T04:02:17;99894.38;;;19.99;40.64
43312;BME280;30041;48.300;16.352;2023-02-01T04:04:43;99890.88;;;19.98;40.80
43312;BME280;30041;48.300;16.352;2023-02-01T04:07:08;99887.13;;;19.99;40.64
43312;BME280;30041;48.300;16.352;2023-02-01T04:09:34;99892.72;;;19.98;40.73
43312;BME280;30041;48.300;16.352;2023-02-01T04:11:59;99898.94;;;19.98;40.66
43312;BME280;30041;48.300;16.352;2023-02-01T04:14:25;99897.06;;;19.99;40.69
43312;BME280;30041;48.300;16.352;2023-02-01T04:16:50;99894.00;;;19.95;40.80
43312;BME280;30041;48.300;16.352;2023-02-01T04:19:16;99878.47;;;19.97;40.64
43312;BME280;30041;48.300;16.352;2023-02-01T04:21:41;99886.75;;;19.96;40.90
43312;BME280;30041;48.300;16.352;2023-02-01T04:24:07;99877.03;;;19.95;40.67
43312;BME280;30041;48.300;16.352;2023-02-01T04:26:32;99883.03;;;19.97;40.76
43312;BME280;30041;48.300;16.352;2023-02-01T04:28:58;99880.75;;;19.94;40.75
43312;BME280;30041;48.300;16.352;2023-02-01T04:31:23;99870.84;;;19.94;40.58
43312;BME280;30041;48.300;16.352;2023-02-01T04:33:49;99878.66;;;19.96;40.73
43312;BME280;30041;48.300;16.352;2023-02-01T04:36:14;99884.91;;;19.96;40.64
43312;BME280;30041;48.300;16.352;2023-02-01T04:38:40;99876.22;;;19.94;40.84
43312;BME280;30041;48.300;16.352;2023-02-01T04:41:05;99871.06;;;19.93;40.67
43312;BME280;30041;48.300;16.352;2023-02-01T04:43:31;99860.91;;;19.95;40.83
43312;BME280;30041;48.300;16.352;2023-02-01T04:45:56;99861.09;;;19.93;40.71
43312;BME280;30041;48.300;16.352;2023-02-01T04:48:22;99835.63;;;19.96;40.65
43312;BME280;30041;48.300;16.352;2023-02-01T04:50:48;99852.22;;;19.93;40.66
43312;BME280;30041;48.300;16.352;2023-02-01T04:53:14;99854.09;;;19.92;40.79
43312;BME280;30041;48.300;16.352;2023-02-01T04:55:40;99855.13;;;19.91;40.72
43312;BME280;30041;48.300;16.352;2023-02-01T04:58:06;99850.81;;;19.90;40.78
43312;BME280;30041;48.300;16.352;2023-02-01T05:00:31;99843.34;;;19.92;40.64
43312;BME280;30041;48.300;16.352;2023-02-01T05:02:57;99859.25;;;19.94;40.68
43312;BME280;30041;48.300;16.352;2023-02-01T05:05:22;99841.25;;;19.94;40.71
43312;BME280;30041;48.300;16.352;2023-02-01T05:07:48;99843.09;;;19.94;40.83
43312;BME280;30041;48.300;16.352;2023-02-01T05:10:13;99843.34;;;19.92;40.71
43312;BME280;30041;48.300;16.352;2023-02-01T05:12:39;99832.59;;;19.92;40.68
43312;BME280;30041;48.300;16.352;2023-02-01T05:15:05;99847.66;;;19.93;40.73
43312;BME280;30041;48.300;16.352;2023-02-01T05:17:30;99848.47;;;19.94;40.79
43312;BME280;30041;48.300;16.352;2023-02-01T05:19:56;99851.63;;;19.90;40.77
43312;BME280;30041;48.300;16.352;2023-02-01T05:22:21;99848.72;;;19.92;40.59
43312;BME280;30041;48.300;16.352;2023-02-01T05:24:47;99834.47;;;19.92;40.82
43312;BME280;30041;48.300;16.352;2023-02-01T05:27:12;99841.47;;;19.93;40.68
43312;BME280;30041;48.300;16.352;2023-02-01T05:29:38;99841.47;;;19.93;40.62
43312;BME280;30041;48.300;16.352;2023-02-01T05:32:03;99843.09;;;19.94;40.73
43312;BME280;30041;48.300;16.352;2023-02-01T05:34:29;99844.75;;;19.95;40.86
43312;BME280;30041;48.300;16.352;2023-02-01T05:36:54;99835.28;;;19.92;40.74
43312;BME280;30041;48.300;16.352;2023-02-01T05:39:20;99835.88;;;19.94;40.65
43312;BME280;30041;48.300;16.352;2023-02-01T05:41:45;99832.59;;;19.92;40.71
43312;BME280;30041;48.300;16.352;2023-02-01T05:44:11;99827.81;;;19.94;40.74
43312;BME280;30041;48.300;16.352;2023-02-01T05:46:37;99831.09;;;19.96;40.49
43312;BME280;30041;48.300;16.352;2023-02-01T05:49:04;99819.94;;;19.93;40.99
43312;BME280;30041;48.300;16.352;2023-02-01T05:51:29;99817.25;;;19.93;40.73
43312;BME280;30041;48.300;16.352;2023-02-01T05:53:55;99820.75;;;19.93;40.69
43312;BME280;30041;48.300;16.352;2023-02-01T05:56:20;99808.97;;;19.94;40.77
43312;BME280;30041;48.300;16.352;2023-02-01T05:58:46;99818.66;;;19.95;40.62
43312;BME280;30041;48.300;16.352;2023-02-01T06:01:12;99828.63;;;19.95;40.54
43312;BME280;30041;48.300;16.352;2023-02-01T06:03:37;99827.81;;;19.94;40.60
43312;BME280;30041;48.300;16.352;2023-02-01T06:06:03;99836.91;;;19.93;40.75
43312;BME280;30041;48.300;16.352;2023-02-01T06:08:28;99836.09;;;19.93;40.75
43312;BME280;30041;48.300;16.352;2023-02-01T06:11:01;99828.63;;;19.95;40.52
43312;BME280;30041;48.300;16.352;2023-02-01T06:13:27;99825.31;;;19.93;40.77
43312;BME280;30041;48.300;16.352;2023-02-01T06:15:53;99834.81;;;19.95;40.83
43312;BME280;30041;48.300;16.352;2023-02-01T06:18:19;99845.78;;;19.94;40.77
43312;BME280;30041;48.300;16.352;2023-02-01T06:20:44;99837.50;;;19.95;40.68
43312;BME280;30041;48.300;16.352;2023-02-01T06:23:12;99836.91;;;19.93;40.56
43312;BME280;30041;48.300;16.352;2023-02-01T06:25:37;99834.59;;;19.97;40.72
43312;BME280;30041;48.300;16.352;2023-02-01T06:28:03;99826.97;;;19.94;41.02
43312;BME280;30041;48.300;16.352;2023-02-01T06:30:28;99838.31;;;19.96;40.86
43312;BME280;30041;48.300;16.352;2023-02-01T06:32:54;99846.38;;;19.96;40.80
43312;BME280;30041;48.300;16.352;2023-02-01T06:35:19;99851.78;;;19.96;41.00
43312;BME280;30041;48.300;16.352;2023-02-01T06:37:45;99848.47;;;19.94;40.87
43312;BME280;30041;48.300;16.352;2023-02-01T06:40:11;99854.25;;;19.97;40.85
43312;BME280;30041;48.300;16.352;2023-02-01T06:42:36;99860.50;;;19.91;40.98
43312;BME280;30041;48.300;16.352;2023-02-01T06:45:02;99855.13;;;19.91;40.84
43312;BME280;30041;48.300;16.352;2023-02-01T06:47:28;99860.91;;;19.95;40.90
43312;BME280;30041;48.300;16.352;2023-02-01T06:49:53;99863.81;;;19.93;41.02
43312;BME280;30041;48.300;16.352;2023-02-01T06:52:19;99852.63;;;19.96;40.73
43312;BME280;30041;48.300;16.352;2023-02-01T06:54:44;99852.00;;;19.94;41.15
43312;BME280;30041;48.300;16.352;2023-02-01T06:57:10;99849.53;;;19.93;40.89
43312;BME280;30041;48.300;16.352;2023-02-01T06:59:35;99843.94;;;19.94;40.87
43312;BME280;30041;48.300;16.352;2023-02-01T07:02:01;99859.47;;;19.92;40.94
43312;BME280;30041;48.300;16.352;2023-02-01T07:04:26;99855.72;;;19.93;40.89
43312;BME280;30041;48.300;16.352;2023-02-01T07:06:52;99860.91;;;19.95;41.00
43312;BME280;30041;48.300;16.352;2023-02-01T07:09:17;99867.91;;;19.96;41.01
43312;BME280;30041;48.300;16.352;2023-02-01T07:11:43;99868.38;;;19.93;40.99
43312;BME280;30041;48.300;16.352;2023-02-01T07:14:09;99865.00;;;19.97;40.79
43312;BME280;30041;48.300;16.352;2023-02-01T07:16:35;99854.03;;;19.99;41.26
43312;BME280;30041;48.300;16.352;2023-02-01T07:19:00;99859.34;;;20.05;42.25
43312;BME280;30041;48.300;16.352;2023-02-01T07:21:26;99847.59;;;20.18;42.83
43312;BME280;30041;48.300;16.352;2023-02-01T07:23:51;99850.81;;;20.27;42.86
43312;BME280;30041;48.300;16.352;2023-02-01T07:26:17;99851.59;;;20.34;43.17
43312;BME280;30041;48.300;16.352;2023-02-01T07:28:42;99840.97;;;20.39;43.26
43312;BME280;30041;48.300;16.352;2023-02-01T07:31:16;99858.66;;;20.47;42.98
43312;BME280;30041;48.300;16.352;2023-02-01T07:33:42;99864.81;;;20.54;43.30
43312;BME280;30041;48.300;16.352;2023-02-01T07:36:12;99868.72;;;20.58;43.08
43312;BME280;30041;48.300;16.352;2023-02-01T07:38:38;99856.91;;;20.59;43.17
43312;BME280;30041;48.300;16.352;2023-02-01T07:41:05;99846.94;;;20.60;43.09
43312;BME280;30041;48.300;16.352;2023-02-01T07:43:31;99850.84;;;20.64;43.02
43312;BME280;30041;48.300;16.352;2023-02-01T07:45:57;99849.19;;;20.63;43.36
43312;BME280;30041;48.300;16.352;2023-02-01T07:48:23;99840.66;;;20.66;43.29
43312;BME280;30041;48.300;16.352;2023-02-01T07:51:00;99849.94;;;20.70;43.11
43312;BME280;30041;48.300;16.352;2023-02-01T07:53:27;99841.78;;;20.77;42.93
43312;BME280;30041;48.300;16.352;2023-02-01T07:55:53;99845.28;;;20.77;43.10
43312;BME280;30041;48.300;16.352;2023-02-01T07:58:19;99836.13;;;20.78;43.09
43312;BME280;30041;48.300;16.352;2023-02-01T08:00:44;99841.31;;;20.80;43.17
43312;BME280;30041;48.300;16.352;2023-02-01T08:03:10;99838.16;;;20.83;43.04
43312;BME280;30041;48.300;16.352;2023-02-01T08:05:35;99835.84;;;20.86;43.11
43312;BME280;30041;48.300;16.352;2023-02-01T08:08:01;99834.34;;;20.90;42.77
43312;BME280;30041;48.300;16.352;2023-02-01T08:10:26;99831.25;;;20.87;43.05
43312;BME280;30041;48.300;16.352;2023-02-01T08:12:51;99816.75;;;20.88;42.94
43312;BME280;30041;48.300;16.352;2023-02-01T08:15:18;99811.72;;;20.91;42.77
43312;BME280;30041;48.300;16.352;2023-02-01T08:17:50;99831.16;;;20.93;42.91
43312;BME280;30041;48.300;16.352;2023-02-01T08:20:17;99828.34;;;20.88;43.00
43312;BME280;30041;48.300;16.352;2023-02-01T08:22:43;99827.47;;;20.76;43.10
43312;BME280;30041;48.300;16.352;2023-02-01T08:25:09;99825.47;;;20.71;43.14
43312;BME280;30041;48.300;16.352;2023-02-01T08:27:35;99824.50;;;20.66;42.92
43312;BME280;30041;48.300;16.352;2023-02-01T08:30:01;99821.72;;;20.72;42.64
43312;BME280;30041;48.300;16.352;2023-02-01T08:32:27;99827.47;;;20.76;42.39
43312;BME280;30041;48.300;16.352;2023-02-01T08:34:52;99819.84;;;20.73;42.27
43312;BME280;30041;48.300;16.352;2023-02-01T08:37:18;99815.66;;;20.77;42.36
43312;BME280;30041;48.300;16.352;2023-02-01T08:39:43;99806.50;;;20.78;42.32
43312;BME280;30041;48.300;16.352;2023-02-01T08:42:09;99800.53;;;20.76;42.68
43312;BME280;30041;48.300;16.352;2023-02-01T08:44:34;99803.31;;;20.69;42.84
43312;BME280;30041;48.300;16.352;2023-02-01T08:47:00;99799.38;;;20.72;43.07
43312;BME280;30041;48.300;16.352;2023-02-01T08:49:26;99803.47;;;20.75;43.01
43312;BME280;30041;48.300;16.352;2023-02-01T08:51:51;99801.59;;;20.75;42.88
43312;BME280;30041;48.300;16.352;2023-02-01T08:54:17;99807.69;;;20.82;43.52
43312;BME280;30041;48.300;16.352;2023-02-01T08:56:42;99805.59;;;20.84;42.68
43312;BME280;30041;48.300;16.352;2023-02-01T08:59:08;99805.13;;;20.87;42.58
43312;BME280;30041;48.300;16.352;2023-02-01T09:01:33;99801.41;;;20.88;42.87
43312;BME280;30041;48.300;16.352;2023-02-01T09:03:59;99812.19;;;20.88;42.97
43312;BME280;30041;48.300;16.352;2023-02-01T09:06:24;99822.59;;;20.85;43.15
43312;BME280;30041;48.300;16.352;2023-02-01T09:08:50;99814.75;;;20.83;42.92
43312;BME280;30041;48.300;16.352;2023-02-01T09:11:17;99829.03;;;20.84;43.10
43312;BME280;30041;48.300;16.352;2023-02-01T09:13:43;99828.81;;;20.85;42.94
43312;BME280;30041;48.300;16.352;2023-02-01T09:16:09;99834.75;;;20.87;43.04
43312;BME280;30041;48.300;16.352;2023-02-01T09:18:34;99820.25;;;20.88;43.07
43312;BME280;30041;48.300;16.352;2023-02-01T09:21:04;99809.72;;;20.87;42.97
43312;BME280;30041;48.300;16.352;2023-02-01T09:23:30;99811.13;;;20.89;42.94
43312;BME280;30041;48.300;16.352;2023-02-01T09:26:02;99809.88;;;20.92;43.04
43312;BME280;30041;48.300;16.352;2023-02-01T09:28:28;99793.44;;;20.93;42.92
43312;BME280;30041;48.300;16.352;2023-02-01T09:30:57;99794.84;;;20.96;42.55
43312;BME280;30041;48.300;16.352;2023-02-01T09:33:24;99788.34;;;21.04;42.60
43312;BME280;30041;48.300;16.352;2023-02-01T09:35:55;99788.34;;;21.04;42.38
43312;BME280;30041;48.300;16.352;2023-02-01T09:38:21;99777.66;;;21.09;42.49
43312;BME280;30041;48.300;16.352;2023-02-01T09:40:46;99777.19;;;21.12;42.05
43312;BME280;30041;48.300;16.352;2023-02-01T09:46:21;99778.84;;;21.13;42.11
43312;BME280;30041;48.300;16.352;2023-02-01T09:48:49;99770.66;;;21.20;42.17
43312;BME280;30041;48.300;16.352;2023-02-01T09:51:25;99761.19;;;21.17;41.95
43312;BME280;30041;48.300;16.352;2023-02-01T09:54:09;99766.09;;;21.20;42.07
43312;BME280;30041;48.300;16.352;2023-02-01T09:56:44;99760.91;;;21.19;42.20
43312;BME280;30041;48.300;16.352;2023-02-01T10:01:57;99746.78;;;21.23;42.12
43312;BME280;30041;48.300;16.352;2023-02-01T10:04:23;99765.63;;;21.23;42.36
43312;BME280;30041;48.300;16.352;2023-02-01T10:07:03;99748.72;;;21.16;42.00
43312;BME280;30041;48.300;16.352;2023-02-01T10:09:52;99754.13;;;21.16;42.17
43312;BME280;30041;48.300;16.352;2023-02-01T10:18:17;99737.63;;;21.12;42.05
43312;BME280;30041;48.300;16.352;2023-02-01T10:24:13;99748.41;;;21.12;41.85
43312;BME280;30041;48.300;16.352;2023-02-01T10:26:45;99738.81;;;21.17;42.04
43312;BME280;30041;48.300;16.352;2023-02-01T10:29:20;99753.78;;;21.12;41.96
43312;BME280;30041;48.300;16.352;2023-02-01T10:31:48;99755.91;;;21.22;42.17
43312;BME280;30041;48.300;16.352;2023-02-01T10:34:19;99756.59;;;21.18;42.04
43312;BME280;30041;48.300;16.352;2023-02-01T10:36:57;99732.22;;;21.12;41.72
43312;BME280;30041;48.300;16.352;2023-02-01T10:39:25;99750.13;;;21.07;41.79
43312;BME280;30041;48.300;16.352;2023-02-01T10:41:50;99729.28;;;21.02;42.02
43312;BME280;30041;48.300;16.352;2023-02-01T10:44:22;99727.50;;;20.96;42.14
43312;BME280;30041;48.300;16.352;2023-02-01T10:46:50;99722.94;;;20.97;41.63
43312;BME280;30041;48.300;16.352;2023-02-01T10:52:35;99741.81;;;20.97;41.49
43312;BME280;30041;48.300;16.352;2023-02-01T10:58:30;99743.59;;;21.14;41.66
43312;BME280;30041;48.300;16.352;2023-02-01T11:00:58;99736.06;;;21.05;41.30
43312;BME280;30041;48.300;16.352;2023-02-01T11:03:42;99731.75;;;21.04;40.67
43312;BME280;30041;48.300;16.352;2023-02-01T11:08:53;99738.44;;;21.13;41.20
43312;BME280;30041;48.300;16.352;2023-02-01T11:11:19;99740.78;;;21.21;41.42
43312;BME280;30041;48.300;16.352;2023-02-01T11:14:15;99726.13;;;21.17;41.61
43312;BME280;30041;48.300;16.352;2023-02-01T11:16:39;99730.13;;;21.26;41.70
43312;BME280;30041;48.300;16.352;2023-02-01T11:19:05;99728.00;;;21.28;41.65
43312;BME280;30041;48.300;16.352;2023-02-01T11:21:34;99727.91;;;21.23;41.69
43312;BME280;30041;48.300;16.352;2023-02-01T11:24:03;99724.94;;;21.25;41.63
43312;BME280;30041;48.300;16.352;2023-02-01T11:26:30;99721.44;;;21.24;41.73
43312;BME280;30041;48.300;16.352;2023-02-01T11:29:05;99731.63;;;21.22;41.87
43312;BME280;30041;48.300;16.352;2023-02-01T11:31:35;99726.34;;;21.27;41.61
43312;BME280;30041;48.300;16.352;2023-02-01T11:34:16;99737.03;;;21.22;42.03
43312;BME280;30041;48.300;16.352;2023-02-01T11:36:45;99739.34;;;21.19;41.98
43312;BME280;30041;48.300;16.352;2023-02-01T11:39:30;99728.84;;;21.17;42.01
43312;BME280;30041;48.300;16.352;2023-02-01T11:42:16;99739.34;;;21.19;42.12
43312;BME280;30041;48.300;16.352;2023-02-01T11:44:44;99743.72;;;21.20;42.13
43312;BME280;30041;48.300;16.352;2023-02-01T11:47:22;99738.22;;;21.26;41.97
43312;BME280;30041;48.300;16.352;2023-02-01T11:49:50;99745.13;;;21.34;41.77
43312;BME280;30041;48.300;16.352;2023-02-01T11:55:29;99734.69;;;21.38;41.90
43312;BME280;30041;48.300;16.352;2023-02-01T12:00:45;99741.50;;;21.28;42.07
43312;BME280;30041;48.300;16.352;2023-02-01T12:03:41;99743.22;;;21.23;41.97
43312;BME280;30041;48.300;16.352;2023-02-01T12:09:02;99745.38;;;21.32;42.07
43312;BME280;30041;48.300;16.352;2023-02-01T12:14:19;99730.94;;;21.39;41.75
43312;BME280;30041;48.300;16.352;2023-02-01T12:17:06;99728.94;;;21.22;41.99
43312;BME280;30041;48.300;16.352;2023-02-01T12:22:55;99724.16;;;21.12;42.19
43312;BME280;30041;48.300;16.352;2023-02-01T12:34:25;99699.63;;;21.14;42.06
43312;BME280;30041;48.300;16.352;2023-02-01T12:39:38;99672.72;;;21.26;41.92
43312;BME280;30041;48.300;16.352;2023-02-01T12:42:18;99658.97;;;21.27;41.69
43312;BME280;30041;48.300;16.352;2023-02-01T12:47:38;99677.72;;;21.34;41.57
43312;BME280;30041;48.300;16.352;2023-02-01T12:52:46;99663.22;;;21.47;41.15
43312;BME280;30041;48.300;16.352;2023-02-01T12:55:24;99654.63;;;21.50;41.02
43312;BME280;30041;48.300;16.352;2023-02-01T12:58:06;99649.81;;;21.52;40.98
43312;BME280;30041;48.300;16.352;2023-02-01T13:00:40;99642.91;;;21.56;41.06
43312;BME280;30041;48.300;16.352;2023-02-01T13:09:20;99647.97;;;21.52;40.48
43312;BME280;30041;48.300;16.352;2023-02-01T13:11:40;99644.53;;;21.69;40.40
43312;BME280;30041;48.300;16.352;2023-02-01T13:17:02;99636.38;;;21.81;40.88
43312;BME280;30041;48.300;16.352;2023-02-01T13:19:42;99640.03;;;21.86;40.87
43312;BME280;30041;48.300;16.352;2023-02-01T13:24:59;99631.44;;;21.89;41.15
43312;BME280;30041;48.300;16.352;2023-02-01T13:27:27;99634.72;;;21.91;41.20
43312;BME280;30041;48.300;16.352;2023-02-01T13:29:58;99626.13;;;21.94;41.39
43312;BME280;30041;48.300;16.352;2023-02-01T13:35:23;99621.09;;;21.98;41.30
43312;BME280;30041;48.300;16.352;2023-02-01T13:43:29;99612.09;;;22.09;41.37
43312;BME280;30041;48.300;16.352;2023-02-01T13:46:02;99612.69;;;22.11;41.13
43312;BME280;30041;48.300;16.352;2023-02-01T13:48:36;99607.53;;;22.10;41.18
43312;BME280;30041;48.300;16.352;2023-02-01T13:51:04;99603.53;;;22.12;41.38
43312;BME280;30041;48.300;16.352;2023-02-01T13:53:37;99608.91;;;22.12;41.12
43312;BME280;30041;48.300;16.352;2023-02-01T13:56:17;99604.09;;;22.14;41.18
43312;BME280;30041;48.300;16.352;2023-02-01T13:58:45;99614.44;;;22.17;41.34
43312;BME280;30041;48.300;16.352;2023-02-01T14:03:52;99619.47;;;22.14;40.99
43312;BME280;30041;48.300;16.352;2023-02-01T14:19:29;99631.66;;;22.00;39.43
43312;BME280;30041;48.300;16.352;2023-02-01T14:21:59;99628.81;;;22.06;40.34
43312;BME280;30041;48.300;16.352;2023-02-01T14:24:32;99627.63;;;22.02;40.13
43312;BME280;30041;48.300;16.352;2023-02-01T14:27:07;99634.13;;;21.89;39.76
43312;BME280;30041;48.300;16.352;2023-02-01T14:29:49;99618.75;;;21.90;40.05
43312;BME280;30041;48.300;16.352;2023-02-01T14:32:21;99632.03;;;21.91;40.14
43312;BME280;30041;48.300;16.352;2023-02-01T14:42:22;99637.34;;;22.03;39.88
43312;BME280;30041;48.300;16.352;2023-02-01T14:44:50;99627.97;;;22.06;40.13
43312;BME280;30041;48.300;16.352;2023-02-01T14:55:56;99657.56;;;22.01;39.83
43312;BME280;30041;48.300;16.352;2023-02-01T15:01:01;99658.38;;;22.01;39.76
43312;BME280;30041;48.300;16.352;2023-02-01T15:06:00;99669.75;;;22.03;39.78